Ninilchik, AK (99639)

4:41 PM AKST on February 06, 2016 (GMT -0900)
mile 16.05 Oilwell Rd. | | Change Station
CLOSE
Current Station
Personal Weather Station
Location: Ninilchik, AK
Elevation: 1161 ft
Nearby Weather Stations

Elev 1161 ft 60.02 °N, 151.33 °W | Updated 5 minutes ago

Clear
Clear
32.0 °F
Feels Like 28 °F
N
3.8
Wind Variable Wind from SE

Today
High -- | Low -- °F
--% Chance of Precip.
Yesterday
High -- | Low -- °F
Precip. -- in
Pressure 29.80 in
Visibility 10.0 miles
Clouds Clear
Windchill 28 °F
Dew Point 26 °F
Humidity 78%
Rainfall 0.00 in
Snow Depth Not available.
9:08 AM 5:33 PM
Waning Crescent, 3% visible
METAR PAHO 070053Z AUTO 09005KT 10SM CLR 02/01 A2979 RMK SLP089 T00220006 TSNO VIA AUTODIAL
Pressure 29.80 in
Visibility 10.0 miles
Clouds Clear
Windchill 28 °F
Dew Point 26 °F
Humidity 78%
Rainfall 0.00 in
Snow Depth Not available.
9:08 AM 5:33 PM
Waning Crescent, 3% visible
METAR PAHO 070053Z AUTO 09005KT 10SM CLR 02/01 A2979 RMK SLP089 T00220006 TSNO VIA AUTODIAL

10-Day Weather Forecast

Almanac

Astronomy

Feb. 06, 2016 Rise Set
Actual Time
Civil Twilight
Nautical Twilight
Astronomical Twilight
Moon
Length of Visible Light
Length of Day
Tomorrow will be .
, % of the Moon is Illuminated

Today's Extremes

State Highs State Lows

Community

WunderPhotos

Upload Photos

1,891,123 photos uploaded!

WunderBlog® & News

Nearby

Air Quality

  Air Quality AQ Index Pollutant
Not available.

Snow Depth

Station Depth Elevation

Earthquake Activity

City Distance Mag. Time & Date
Minimum magnitude displayed is 2.5.

Coastal Water Temperatures

Place Temperature

Stations

Nearby Weather Stations

Station Location Temp. Windchill Dew Point Humidity Wind Precip. Elev Updated Type
                   

Watches & Warnings

There are currently no watches in effect.